createdAt,value
2022-10-19T00:02:21.275Z,100093.59
2022-10-19T00:04:47.788Z,100098.38
2022-10-19T00:07:14.325Z,100093.97
2022-10-19T00:09:43.970Z,100095.53
2022-10-19T00:12:11.017Z,100095.13
2022-10-19T00:14:37.587Z,100097.13
2022-10-19T00:17:04.070Z,100100.66
2022-10-19T00:19:30.599Z,100104.22
2022-10-19T00:21:57.101Z,100095.06
2022-10-19T00:24:23.631Z,100106.59
2022-10-19T00:26:50.185Z,100106.50
2022-10-19T00:29:17.165Z,100104.88
2022-10-19T00:31:43.887Z,100099.31
2022-10-19T00:34:10.957Z,100107.66
2022-10-19T00:36:39.886Z,100107.16
2022-10-19T00:39:10.609Z,100103.13
2022-10-19T00:41:37.966Z,100090.78
2022-10-19T00:44:06.656Z,100100.63
2022-10-19T00:46:39.513Z,100100.19
2022-10-19T00:49:28.379Z,100092.13
2022-10-19T00:51:58.227Z,100100.34
2022-10-19T00:54:25.924Z,100096.28
2022-10-19T00:56:55.884Z,100087.41
2022-10-19T00:59:25.251Z,100094.19
2022-10-19T01:01:52.643Z,100105.22
2022-10-19T01:04:22.050Z,100098.06
2022-10-19T01:06:48.606Z,100097.31
2022-10-19T01:09:15.147Z,100092.56
2022-10-19T01:11:53.905Z,100105.56
2022-10-19T01:14:20.349Z,100104.75
2022-10-19T01:16:51.029Z,100096.78
2022-10-19T01:19:58.899Z,100092.00
2022-10-19T01:22:53.449Z,100095.53
2022-10-19T01:25:30.044Z,100096.69
2022-10-19T01:28:24.070Z,100081.94
2022-10-19T01:30:59.378Z,100093.75
2022-10-19T01:33:28.612Z,100081.81
2022-10-19T01:36:04.713Z,100083.69
2022-10-19T01:38:47.575Z,100086.81
2022-10-19T01:41:20.098Z,100088.78
2022-10-19T01:44:01.817Z,100082.34
2022-10-19T01:46:39.299Z,100085.91
2022-10-19T01:49:38.163Z,100082.59
2022-10-19T01:52:09.181Z,100092.53
2022-10-19T01:54:45.014Z,100105.19
2022-10-19T01:57:15.298Z,100112.75
2022-10-19T01:59:43.265Z,100110.75
2022-10-19T02:02:11.707Z,100117.50
2022-10-19T02:04:39.732Z,100105.19
2022-10-19T02:07:08.287Z,100123.03
2022-10-19T02:09:35.678Z,100132.59
2022-10-19T02:12:06.352Z,100122.28
2022-10-19T02:14:37.533Z,100135.72
2022-10-19T02:17:14.208Z,100131.78
2022-10-19T02:19:42.877Z,100133.00
2022-10-19T02:22:10.532Z,100125.84
2022-10-19T02:24:37.103Z,100134.56
2022-10-19T02:27:06.339Z,100126.22
2022-10-19T02:29:34.450Z,100123.88
2022-10-19T02:32:02.076Z,100123.88
2022-10-19T02:34:29.462Z,100125.50
2022-10-19T02:36:56.210Z,100134.97
2022-10-19T02:39:23.094Z,100134.94
2022-10-19T02:41:55.798Z,100137.72
2022-10-19T02:44:37.730Z,100133.25
2022-10-19T02:47:15.568Z,100129.75
2022-10-19T02:49:43.649Z,100126.13
2022-10-19T02:52:12.551Z,100129.72
2022-10-19T02:54:41.002Z,100122.94
2022-10-19T02:57:19.769Z,100123.25
2022-10-19T02:59:46.586Z,100132.31
2022-10-19T03:02:14.132Z,100129.56
2022-10-19T03:04:41.850Z,100123.59
2022-10-19T03:07:16.354Z,100129.94
2022-10-19T03:09:43.535Z,100132.25
2022-10-19T03:12:11.180Z,100136.22
2022-10-19T03:14:37.922Z,100133.03
2022-10-19T03:17:04.679Z,100130.50
2022-10-19T03:19:32.082Z,100126.81
2022-10-19T03:21:58.574Z,100125.09
2022-10-19T03:24:25.263Z,100130.81
2022-10-19T03:26:51.896Z,100131.47
2022-10-19T03:29:18.419Z,100128.50
2022-10-19T03:31:44.966Z,100133.47
2022-10-19T03:34:11.442Z,100143.25
2022-10-19T03:36:39.550Z,100143.53
2022-10-19T03:39:11.323Z,100145.03
2022-10-19T03:41:38.611Z,100148.09
2022-10-19T03:44:07.068Z,100140.91
2022-10-19T03:46:34.224Z,100138.28
2022-10-19T03:49:00.720Z,100142.13
2022-10-19T03:51:29.332Z,100150.72
2022-10-19T03:53:59.351Z,100147.03
2022-10-19T03:56:27.402Z,100146.06
2022-10-19T03:58:55.685Z,100140.53
2022-10-19T04:01:25.492Z,100127.38
2022-10-19T04:03:56.556Z,100132.84
2022-10-19T04:06:27.023Z,100130.50
2022-10-19T04:08:53.558Z,100123.94
2022-10-19T04:11:22.957Z,100126.13
2022-10-19T04:13:50.585Z,100130.72
2022-10-19T04:16:17.202Z,100123.94
2022-10-19T04:18:43.806Z,100125.03
2022-10-19T04:21:21.358Z,100123.78
2022-10-19T04:23:47.957Z,100131.94
2022-10-19T04:26:14.718Z,100123.63
2022-10-19T04:28:41.340Z,100127.31
2022-10-19T04:31:08.264Z,100132.00
2022-10-19T04:33:34.934Z,100131.00
2022-10-19T04:36:04.038Z,100125.75
2022-10-19T04:38:30.915Z,100132.34
2022-10-19T04:41:02.708Z,100122.00
2022-10-19T04:43:29.281Z,100124.34
2022-10-19T04:45:55.796Z,100122.66
2022-10-19T04:48:22.458Z,100128.19
2022-10-19T04:50:48.989Z,100133.72
2022-10-19T04:53:15.552Z,100120.19
2022-10-19T04:55:42.890Z,100120.19
2022-10-19T04:58:09.708Z,100116.59
2022-10-19T05:00:38.122Z,100113.75
2022-10-19T05:03:04.968Z,100112.00
2022-10-19T05:05:32.781Z,100119.47
2022-10-19T05:07:59.293Z,100118.94
2022-10-19T05:10:26.929Z,100117.53
2022-10-19T05:12:54.342Z,100119.31
2022-10-19T05:15:21.262Z,100119.94
2022-10-19T05:17:48.187Z,100130.34
2022-10-19T05:20:14.863Z,100130.09
2022-10-19T05:22:41.564Z,100131.69
2022-10-19T05:25:08.452Z,100127.88
2022-10-19T05:27:36.781Z,100133.53
2022-10-19T05:30:04.569Z,100129.66
2022-10-19T05:32:31.078Z,100129.47
2022-10-19T05:34:57.680Z,100126.53
2022-10-19T05:37:25.692Z,100130.09
2022-10-19T05:39:52.337Z,100133.31
2022-10-19T05:42:18.857Z,100129.41
2022-10-19T05:44:45.352Z,100128.34
2022-10-19T05:47:11.886Z,100128.88
2022-10-19T05:49:38.448Z,100129.09
2022-10-19T05:52:05.148Z,100122.84
2022-10-19T05:54:31.991Z,100127.38
2022-10-19T05:56:58.602Z,100120.28
2022-10-19T05:59:25.120Z,100129.75
2022-10-19T06:01:51.723Z,100135.25
2022-10-19T06:04:18.390Z,100138.00
2022-10-19T06:06:46.056Z,100128.75
2022-10-19T06:09:12.803Z,100125.97
2022-10-19T06:11:41.577Z,100128.50
2022-10-19T06:14:13.547Z,100138.47
2022-10-19T06:16:40.159Z,100143.72
2022-10-19T06:19:06.928Z,100139.81
2022-10-19T06:21:34.585Z,100141.34
2022-10-19T06:24:06.507Z,100155.31
2022-10-19T06:26:34.321Z,100160.66
2022-10-19T06:29:01.979Z,100155.38
2022-10-19T06:31:30.902Z,100162.25
2022-10-19T06:33:57.604Z,100164.00
2022-10-19T06:36:27.965Z,100166.63
2022-10-19T06:38:55.935Z,100166.06
2022-10-19T06:41:23.673Z,100169.78
2022-10-19T06:43:51.743Z,100172.69
2022-10-19T06:46:20.730Z,100167.38
2022-10-19T06:48:51.756Z,100169.53
2022-10-19T06:51:19.079Z,100168.91
2022-10-19T06:53:45.867Z,100171.59
2022-10-19T06:56:12.625Z,100173.34
2022-10-19T06:58:39.943Z,100177.50
2022-10-19T07:01:08.529Z,100180.00
2022-10-19T07:03:36.084Z,100179.66
2022-10-19T07:06:05.400Z,100181.72
2022-10-19T07:08:33.245Z,100185.56
2022-10-19T07:11:02.883Z,100182.22
2022-10-19T07:13:29.991Z,100185.19
2022-10-19T07:16:03.508Z,100188.50
2022-10-19T07:18:29.961Z,100192.44
2022-10-19T07:20:57.726Z,100187.53
2022-10-19T07:23:25.707Z,100196.75
2022-10-19T07:25:53.644Z,100190.28
2022-10-19T07:28:21.799Z,100190.69
2022-10-19T07:30:48.601Z,100185.47
2022-10-19T07:33:15.179Z,100197.50
2022-10-19T07:35:41.787Z,100193.78
2022-10-19T07:38:08.871Z,100198.25
2022-10-19T07:40:36.089Z,100193.53
2022-10-19T07:43:02.706Z,100195.84
2022-10-19T07:45:30.011Z,100194.44
2022-10-19T07:47:56.562Z,100192.19
2022-10-19T07:50:24.676Z,100202.53
2022-10-19T07:52:55.753Z,100192.16
2022-10-19T07:55:22.268Z,100190.78
2022-10-19T07:57:49.939Z,100185.78
2022-10-19T08:00:17.512Z,100181.16
2022-10-19T08:02:54.875Z,100181.28
2022-10-19T08:05:33.123Z,100196.09
2022-10-19T08:07:59.633Z,100182.28
2022-10-19T08:10:26.199Z,100182.34
2022-10-19T08:12:53.867Z,100184.31
2022-10-19T08:15:20.848Z,100187.91
2022-10-19T08:17:47.450Z,100179.09
2022-10-19T08:20:14.046Z,100185.84
2022-10-19T08:22:41.873Z,100179.09
2022-10-19T08:25:08.587Z,100184.56
2022-10-19T08:30:02.781Z,100185.03
2022-10-19T08:32:29.311Z,100192.09
2022-10-19T08:34:55.852Z,100187.66
2022-10-19T08:37:43.710Z,100191.19
2022-10-19T08:40:19.017Z,100185.13
2022-10-19T08:43:04.697Z,100193.91
2022-10-19T08:45:49.009Z,100184.34
2022-10-19T08:48:30.300Z,100178.78
2022-10-19T08:50:59.261Z,100182.09
2022-10-19T08:53:54.531Z,100190.16
2022-10-19T08:56:50.889Z,100178.56
2022-10-19T08:59:42.784Z,100187.03
2022-10-19T09:02:31.028Z,100180.00
2022-10-19T09:05:05.943Z,100189.41
2022-10-19T09:07:45.539Z,100183.91
2022-10-19T09:10:15.671Z,100184.84
2022-10-19T09:13:05.436Z,100179.72
2022-10-19T09:15:41.890Z,100171.03
2022-10-19T09:18:19.180Z,100182.38
2022-10-19T09:20:49.080Z,100204.03
2022-10-19T09:23:38.036Z,100190.84
2022-10-19T09:26:11.561Z,100186.94
2022-10-19T09:28:56.040Z,100185.78
2022-10-19T09:31:31.494Z,100183.34
2022-10-19T09:34:03.195Z,100186.50
2022-10-19T09:36:49.989Z,100187.75
2022-10-19T09:39:18.126Z,100182.94
2022-10-19T09:41:49.606Z,100175.09
2022-10-19T09:44:16.596Z,100191.75
2022-10-19T09:47:01.945Z,100187.72
2022-10-19T09:49:43.082Z,100181.66
2022-10-19T09:52:41.749Z,100177.22
2022-10-19T09:55:14.005Z,100188.47
2022-10-19T09:57:44.938Z,100184.63
2022-10-19T10:00:24.078Z,100180.69
2022-10-19T10:02:53.405Z,100183.75
2022-10-19T10:05:25.056Z,100180.19
2022-10-19T10:07:55.344Z,100170.72
2022-10-19T10:10:29.650Z,100167.09
2022-10-19T10:12:59.816Z,100171.88
2022-10-19T10:15:42.860Z,100162.31
2022-10-19T10:18:17.661Z,100159.88
2022-10-19T10:21:06.838Z,100171.41
2022-10-19T10:23:36.481Z,100162.66
2022-10-19T10:26:04.916Z,100151.84
2022-10-19T10:28:31.846Z,100147.09
2022-10-19T10:31:03.655Z,100140.81
2022-10-19T10:33:44.374Z,100155.59
2022-10-19T10:36:12.630Z,100137.22
2022-10-19T10:38:50.159Z,100122.38
2022-10-19T10:41:20.309Z,100121.88
2022-10-19T10:43:59.676Z,100117.34
2022-10-19T10:46:41.451Z,100112.88
2022-10-19T10:49:20.594Z,100117.34
2022-10-19T10:52:17.312Z,100111.00
2022-10-19T10:55:09.569Z,100104.72
2022-10-19T10:57:45.469Z,100101.47
2022-10-19T11:00:16.760Z,100092.81
2022-10-19T11:02:51.279Z,100104.91
2022-10-19T11:05:24.099Z,100093.75
2022-10-19T11:08:00.963Z,100111.16
2022-10-19T11:10:35.468Z,100093.66
2022-10-19T11:13:07.211Z,100082.78
2022-10-19T11:15:44.467Z,100075.28
2022-10-19T11:18:20.187Z,100072.72
2022-10-19T11:21:00.088Z,100081.56
2022-10-19T11:23:44.659Z,100086.44
2022-10-19T11:26:35.254Z,100078.38
2022-10-19T11:29:39.619Z,100083.63
2022-10-19T11:32:18.555Z,100067.63
2022-10-19T11:35:20.861Z,100073.25
2022-10-19T11:38:18.804Z,100069.53
2022-10-19T11:41:24.115Z,100070.44
2022-10-19T11:44:34.897Z,100068.00
2022-10-19T11:47:07.421Z,100074.31
2022-10-19T11:49:40.108Z,100061.63
2022-10-19T11:52:25.634Z,100047.34
2022-10-19T11:55:15.738Z,100038.16
2022-10-19T11:57:54.824Z,100036.97
2022-10-19T12:00:38.055Z,100043.75
2022-10-19T12:03:24.242Z,100024.88
2022-10-19T12:06:18.015Z,100031.91
2022-10-19T12:09:06.003Z,100028.78
2022-10-19T12:12:15.831Z,100029.28
2022-10-19T12:14:46.630Z,100012.06
2022-10-19T12:17:18.199Z,100010.91
2022-10-19T12:19:50.184Z,100002.44
2022-10-19T12:22:25.059Z,100001.91
2022-10-19T12:24:55.377Z,99992.63
2022-10-19T12:27:30.486Z,99980.75
2022-10-19T12:30:03.774Z,99981.28
2022-10-19T12:32:35.285Z,99985.25
2022-10-19T12:35:17.843Z,99992.19
2022-10-19T12:37:57.856Z,99979.91
2022-10-19T12:40:39.984Z,99982.34
2022-10-19T12:43:27.896Z,99983.06
2022-10-19T12:46:20.452Z,99975.94
2022-10-19T12:49:07.046Z,99973.66
2022-10-19T12:51:45.692Z,99961.94
2022-10-19T12:54:12.932Z,99967.25
2022-10-19T12:56:52.976Z,99959.34
2022-10-19T12:59:25.829Z,99955.66
2022-10-19T13:01:54.349Z,99956.16
2022-10-19T13:04:22.411Z,99958.53
2022-10-19T13:06:58.124Z,99953.38
2022-10-19T13:09:41.906Z,99953.38
2022-10-19T13:12:21.511Z,99953.00
2022-10-19T13:15:03.906Z,99946.03
2022-10-19T13:17:51.088Z,99968.34
2022-10-19T13:20:17.531Z,99956.00
2022-10-19T13:22:50.205Z,99961.25
2022-10-19T13:25:19.457Z,99946.41
2022-10-19T13:28:06.183Z,99949.38
2022-10-19T13:30:35.915Z,99963.41
2022-10-19T13:33:28.658Z,99983.75
2022-10-19T13:36:02.357Z,99981.63
2022-10-19T13:38:41.814Z,99968.06
2022-10-19T13:41:11.310Z,99962.00
2022-10-19T13:44:03.137Z,99958.06
2022-10-19T13:46:29.561Z,99969.94
2022-10-19T13:49:05.103Z,99967.47
2022-10-19T13:52:14.030Z,99958.00
2022-10-19T13:54:52.837Z,99958.88
2022-10-19T13:58:00.432Z,99959.63
2022-10-19T14:01:14.227Z,99961.19
2022-10-19T14:03:46.788Z,99954.09
2022-10-19T14:06:28.362Z,99961.31
2022-10-19T14:09:18.755Z,99966.13
2022-10-19T14:11:48.496Z,99965.75
2022-10-19T14:14:23.929Z,99950.56
2022-10-19T14:17:05.189Z,99956.59
2022-10-19T14:19:51.448Z,99950.63
2022-10-19T14:22:33.787Z,99957.44
2022-10-19T14:25:17.337Z,99965.84
2022-10-19T14:27:45.073Z,99960.69
2022-10-19T14:30:23.315Z,99954.72
2022-10-19T14:32:49.923Z,99964.69
2022-10-19T14:35:22.496Z,99949.16
2022-10-19T14:37:49.773Z,99955.53
2022-10-19T14:40:28.138Z,99955.53
2022-10-19T14:42:56.913Z,99954.75
2022-10-19T14:45:27.383Z,99961.50
2022-10-19T14:48:06.891Z,99956.69
2022-10-19T14:50:50.425Z,99962.28
2022-10-19T14:53:39.772Z,99964.66
2022-10-19T14:56:43.121Z,99980.94
2022-10-19T14:59:21.471Z,99974.13
2022-10-19T15:01:54.355Z,99978.81
2022-10-19T15:04:24.204Z,99981.94
2022-10-19T15:06:51.421Z,99979.03
2022-10-19T15:09:37.336Z,99981.34
2022-10-19T15:12:17.259Z,99989.09
2022-10-19T15:14:45.791Z,99989.41
2022-10-19T15:17:25.559Z,99986.88
2022-10-19T15:19:53.817Z,99986.28
2022-10-19T15:22:21.845Z,99995.53
2022-10-19T15:25:14.450Z,100013.84
2022-10-19T15:27:45.464Z,100003.22
2022-10-19T15:30:17.755Z,100008.06
2022-10-19T15:33:09.109Z,100006.59
2022-10-19T15:35:38.367Z,100000.41
2022-10-19T15:38:06.285Z,100015.19
2022-10-19T15:40:35.881Z,100012.19
2022-10-19T15:43:45.689Z,100016.31
2022-10-19T15:46:12.232Z,100024.41
2022-10-19T15:48:41.743Z,100021.09
2022-10-19T15:51:33.060Z,100019.69
2022-10-19T15:54:01.669Z,100027.81
2022-10-19T15:56:30.813Z,100022.16
2022-10-19T15:58:59.877Z,100034.25
2022-10-19T16:01:29.238Z,100040.06
2022-10-19T16:03:56.599Z,100038.31
2022-10-19T16:06:26.392Z,100039.72
2022-10-19T16:08:54.158Z,100036.13
2022-10-19T16:11:22.970Z,100039.56
2022-10-19T16:13:49.526Z,100052.59
2022-10-19T16:16:28.188Z,100057.59
2022-10-19T16:18:55.595Z,100064.47
2022-10-19T16:21:25.748Z,100053.28
2022-10-19T16:23:52.878Z,100063.00
2022-10-19T16:26:20.423Z,100064.88
2022-10-19T16:28:48.636Z,100067.50
2022-10-19T16:31:16.792Z,100075.63
2022-10-19T16:33:43.560Z,100082.59
2022-10-19T16:36:10.402Z,100085.53
2022-10-19T16:38:37.045Z,100086.16
2022-10-19T16:41:08.374Z,100094.28
2022-10-19T16:43:35.748Z,100091.34
2022-10-19T16:46:02.579Z,100098.66
2022-10-19T16:48:30.164Z,100109.16
2022-10-19T16:51:05.598Z,100096.75
2022-10-19T16:53:32.383Z,100099.44
2022-10-19T16:56:07.786Z,100089.72
2022-10-19T16:58:35.002Z,100100.94
2022-10-19T17:01:10.489Z,100109.84
2022-10-19T17:03:37.108Z,100109.16
2022-10-19T17:06:05.829Z,100109.41
2022-10-19T17:08:36.823Z,100109.56
2022-10-19T17:11:15.147Z,100124.66
2022-10-19T17:13:42.603Z,100131.97
2022-10-19T17:16:09.716Z,100134.28
2022-10-19T17:18:36.987Z,100138.91
2022-10-19T17:21:05.577Z,100132.47
2022-10-19T17:23:32.596Z,100142.72
2022-10-19T17:25:59.160Z,100160.75
2022-10-19T17:28:27.709Z,100169.38
2022-10-19T17:30:54.780Z,100170.78
2022-10-19T17:33:21.493Z,100172.97
2022-10-19T17:35:48.111Z,100167.09
2022-10-19T17:38:14.701Z,100185.91
2022-10-19T17:40:41.289Z,100187.38
2022-10-19T17:43:07.947Z,100194.56
2022-10-19T17:45:34.785Z,100204.91
2022-10-19T17:48:01.365Z,100208.84
2022-10-19T17:50:27.865Z,100199.53
2022-10-19T17:52:54.434Z,100203.78
2022-10-19T17:57:48.566Z,100208.38
2022-10-19T18:00:15.283Z,100211.38
2022-10-19T18:02:44.173Z,100209.31
2022-10-19T18:05:10.866Z,100200.81
2022-10-19T18:07:37.579Z,100207.03
2022-10-19T18:10:04.597Z,100221.59
2022-10-19T18:12:31.306Z,100217.78
2022-10-19T18:14:57.910Z,100225.97
2022-10-19T18:17:27.692Z,100235.13
2022-10-19T18:19:54.480Z,100234.31
2022-10-19T18:22:21.893Z,100238.94
2022-10-19T18:24:49.524Z,100234.59
2022-10-19T18:27:16.130Z,100243.53
2022-10-19T18:29:42.707Z,100247.84
2022-10-19T18:32:09.250Z,100255.03
2022-10-19T18:34:35.802Z,100250.88
2022-10-19T18:37:02.438Z,100252.81
2022-10-19T18:39:29.073Z,100250.50
2022-10-19T18:41:55.664Z,100249.47
2022-10-19T18:44:26.414Z,100255.38
2022-10-19T18:46:55.492Z,100260.63
2022-10-19T18:49:22.092Z,100264.19
2022-10-19T18:51:54.013Z,100270.50
2022-10-19T18:54:24.137Z,100273.38
2022-10-19T18:56:50.688Z,100270.47
2022-10-19T18:59:17.314Z,100274.16
2022-10-19T19:01:43.960Z,100274.28
2022-10-19T19:04:10.552Z,100270.50
2022-10-19T19:06:38.215Z,100272.56
2022-10-19T19:09:10.592Z,100282.75
2022-10-19T19:11:40.745Z,100280.34
2022-10-19T19:14:18.528Z,100283.09
2022-10-19T19:16:45.545Z,100271.59
2022-10-19T19:19:14.741Z,100280.66
2022-10-19T19:21:44.333Z,100281.69
2022-10-19T19:24:19.168Z,100283.16
2022-10-19T19:26:52.064Z,100290.41
2022-10-19T19:29:19.855Z,100293.63
2022-10-19T19:31:47.293Z,100293.41
2022-10-19T19:34:14.227Z,100292.75
2022-10-19T19:36:48.403Z,100296.91
2022-10-19T19:39:18.888Z,100303.47
2022-10-19T19:41:45.866Z,100302.91
2022-10-19T19:44:12.369Z,100296.72
2022-10-19T19:46:38.963Z,100295.03
2022-10-19T19:49:05.472Z,100299.97
2022-10-19T19:51:33.444Z,100306.28
2022-10-19T19:54:00.135Z,100303.47
2022-10-19T19:56:26.937Z,100307.22
2022-10-19T19:58:55.947Z,100313.34
2022-10-19T20:01:22.947Z,100312.09
2022-10-19T20:03:49.803Z,100306.94
2022-10-19T20:06:20.750Z,100306.47
2022-10-19T20:08:50.269Z,100315.34
2022-10-19T20:11:17.598Z,100309.22
2022-10-19T20:13:45.657Z,100318.63
2022-10-19T20:16:18.308Z,100331.28
2022-10-19T20:18:47.003Z,100334.94
2022-10-19T20:21:14.663Z,100331.88
2022-10-19T20:23:45.565Z,100330.81
2022-10-19T20:26:16.678Z,100336.81
2022-10-19T20:28:43.234Z,100339.09
2022-10-19T20:31:10.847Z,100339.56
2022-10-19T20:33:38.867Z,100339.09
2022-10-19T20:36:13.994Z,100340.91
2022-10-19T20:38:45.985Z,100338.16
2022-10-19T20:41:12.559Z,100333.13
2022-10-19T20:43:39.230Z,100338.75
2022-10-19T20:46:13.354Z,100350.34
2022-10-19T20:48:40.482Z,100340.72
2022-10-19T20:51:27.536Z,100355.78
2022-10-19T20:53:58.578Z,100353.03
2022-10-19T20:56:28.059Z,100352.22
2022-10-19T20:59:00.189Z,100352.78
2022-10-19T21:01:28.146Z,100359.09
2022-10-19T21:03:58.321Z,100356.69
2022-10-19T21:06:26.896Z,100357.59
2022-10-19T21:08:54.105Z,100355.66
2022-10-19T21:11:23.346Z,100354.63
2022-10-19T21:13:54.213Z,100350.50
2022-10-19T21:16:22.120Z,100352.91
2022-10-19T21:18:49.707Z,100349.00
2022-10-19T21:21:28.805Z,100349.91
2022-10-19T21:23:58.127Z,100343.25
2022-10-19T21:26:26.565Z,100345.09
2022-10-19T21:28:53.303Z,100357.06
2022-10-19T21:31:21.622Z,100342.81
2022-10-19T21:33:48.505Z,100336.47
2022-10-19T21:36:15.694Z,100339.47
2022-10-19T21:38:42.821Z,100344.63
2022-10-19T21:41:20.839Z,100343.25
2022-10-19T21:43:50.585Z,100356.09
2022-10-19T21:46:19.604Z,100350.81
2022-10-19T21:48:46.760Z,100346.81
2022-10-19T21:51:22.423Z,100348.06
2022-10-19T21:53:49.085Z,100352.91
2022-10-19T21:56:16.385Z,100352.00
2022-10-19T21:58:47.699Z,100338.75
2022-10-19T22:01:15.242Z,100346.94
2022-10-19T22:03:42.723Z,100343.34
